Holgate, Ohio
Current Conditions -  °F | °C
As of 4:55 PM on Tuesday 25 Nov 2014 (Local Time) from KUSE Reporting Station
Overcast Overcast  
Wind Chill: 18°   Ceiling: 2400
Heat Index: 28°   Visibility: 10mi
Dew Point: 23°   Wind: 12mph
Humidity: 80%   Direction: 280°W
Pressure: 30.14"   Gusts: NA
Location:  41.25°N, 84.13°W
Report Text: KUSE 252155Z AUTO 28010KT 10SM OVC024 M02/M05 A3014 RMK AO2
Loading
Personal Weather Stations






























Interactive Weather Map New forecast layout! Learn more

10-Day Weather Forecast

Advertisements
Track Severe Weather on mobile